createdAt,value
2023-04-02T00:02:33.955Z,99486.09
2023-04-02T00:06:01.797Z,99478.16
2023-04-02T00:09:39.116Z,99478.94
2023-04-02T00:13:25.796Z,99485.78
2023-04-02T00:16:52.847Z,99483.16
2023-04-02T00:20:32.681Z,99489.75
2023-04-02T00:24:17.155Z,99481.56
2023-04-02T00:27:52.271Z,99480.50
2023-04-02T00:31:19.256Z,99481.81
2023-04-02T00:34:53.609Z,99475.22
2023-04-02T00:38:26.894Z,99484.47
2023-04-02T00:42:08.905Z,99474.72
2023-04-02T00:45:37.212Z,99488.94
2023-04-02T00:49:21.516Z,99487.91
2023-04-02T00:52:58.435Z,99479.47
2023-04-02T00:56:34.575Z,99491.09
2023-04-02T01:00:23.995Z,99489.50
2023-04-02T01:04:01.548Z,99487.66
2023-04-02T01:07:53.593Z,99492.47
2023-04-02T01:11:32.017Z,99495.09
2023-04-02T01:15:14.641Z,99488.22
2023-04-02T01:18:53.375Z,99485.84
2023-04-02T01:22:48.277Z,99488.47
2023-04-02T01:26:27.763Z,99493.50
2023-04-02T01:29:56.867Z,99497.44
2023-04-02T01:33:30.258Z,99501.66
2023-04-02T01:37:25.118Z,99500.88
2023-04-02T01:41:09.588Z,99511.72
2023-04-02T01:44:39.926Z,99512.78
2023-04-02T01:48:24.846Z,99521.19
2023-04-02T01:51:56.865Z,99519.13
2023-04-02T01:55:30.294Z,99519.66
2023-04-02T01:59:02.922Z,99527.84
2023-04-02T02:02:30.886Z,99517.78
2023-04-02T02:05:46.974Z,99524.69
2023-04-02T02:09:26.088Z,99525.47
2023-04-02T02:13:01.910Z,99522.59
2023-04-02T02:16:34.644Z,99522.59
2023-04-02T02:20:17.916Z,99525.47
2023-04-02T02:23:34.569Z,99538.66
2023-04-02T02:27:22.925Z,99531.53
2023-04-02T02:30:59.567Z,99536.03
2023-04-02T02:34:34.372Z,99531.28
2023-04-02T02:39:03.920Z,99530.72
2023-04-02T02:42:51.384Z,99536.03
2023-04-02T02:46:22.356Z,99545.28
2023-04-02T02:49:50.938Z,99535.22
2023-04-02T02:53:30.832Z,99536.28
2023-04-02T02:57:02.578Z,99528.66
2023-04-02T03:00:43.748Z,99534.44
2023-04-02T03:04:23.892Z,99537.06
2023-04-02T03:07:52.588Z,99529.13
2023-04-02T03:11:38.210Z,99527.81
2023-04-02T03:15:27.666Z,99529.94
2023-04-02T03:19:01.297Z,99527.56
2023-04-02T03:22:41.644Z,99518.31
2023-04-02T03:26:15.948Z,99529.09
2023-04-02T03:30:11.036Z,99526.75
2023-04-02T03:33:48.129Z,99523.34
2023-04-02T03:37:14.400Z,99526.47
2023-04-02T03:41:17.673Z,99535.69
2023-04-02T03:44:59.755Z,99537.81
2023-04-02T03:48:46.377Z,99550.19
2023-04-02T03:52:30.579Z,99556.50
2023-04-02T03:55:57.686Z,99551.41
2023-04-02T03:59:35.960Z,99549.53
2023-04-02T04:03:16.725Z,99556.16
2023-04-02T04:06:34.333Z,99562.66
2023-04-02T04:09:52.744Z,99563.69
2023-04-02T04:13:26.029Z,99565.81
2023-04-02T04:17:09.550Z,99565.81
2023-04-02T04:20:50.358Z,99564.19
2023-04-02T04:24:28.320Z,99575.78
2023-04-02T04:28:27.013Z,99581.06
2023-04-02T04:31:55.856Z,99578.03
2023-04-02T04:35:33.512Z,99584.28
2023-04-02T04:39:05.890Z,99581.16
2023-04-02T04:42:40.334Z,99591.19
2023-04-02T04:46:16.620Z,99595.38
2023-04-02T04:50:06.343Z,99589.63
2023-04-02T04:53:51.610Z,99599.16
2023-04-02T04:57:35.188Z,99591.69
2023-04-02T05:01:38.912Z,99587.75
2023-04-02T05:05:03.604Z,99593.53
2023-04-02T05:08:27.359Z,99592.25
2023-04-02T05:12:27.387Z,99595.97
2023-04-02T05:16:21.395Z,99595.47
2023-04-02T05:20:22.680Z,99593.16
2023-04-02T05:24:40.183Z,99596.69
2023-04-02T05:28:10.346Z,99597.25
2023-04-02T05:31:49.287Z,99610.00
2023-04-02T05:35:07.792Z,99607.41
2023-04-02T05:38:37.939Z,99605.84
2023-04-02T05:42:22.722Z,99608.53
2023-04-02T05:45:54.653Z,99598.22
2023-04-02T05:49:48.164Z,99602.47
2023-04-02T05:53:41.612Z,99608.56
2023-04-02T05:57:46.794Z,99617.28
2023-04-02T06:01:18.731Z,99610.06
2023-04-02T06:04:59.987Z,99614.25
2023-04-02T06:08:52.154Z,99616.34
2023-04-02T06:12:49.287Z,99620.50
2023-04-02T06:15:58.721Z,99625.25
2023-04-02T06:19:31.828Z,99624.59
2023-04-02T06:23:41.239Z,99617.59
2023-04-02T06:27:10.505Z,99616.41
2023-04-02T06:31:07.736Z,99622.59
2023-04-02T06:34:32.609Z,99638.38
2023-04-02T06:38:06.527Z,99640.25
2023-04-02T06:42:13.768Z,99647.94
2023-04-02T06:45:45.323Z,99653.91
2023-04-02T06:49:11.001Z,99662.22
2023-04-02T06:53:06.403Z,99661.41
2023-04-02T06:56:58.705Z,99654.84
2023-04-02T07:00:43.290Z,99659.97
2023-04-02T07:03:48.230Z,99660.13
2023-04-02T07:07:00.574Z,99661.28
2023-04-02T07:10:32.328Z,99667.97
2023-04-02T07:13:45.102Z,99655.84
2023-04-02T07:17:22.027Z,99663.63
2023-04-02T07:20:45.055Z,99654.94
2023-04-02T07:24:29.005Z,99661.72
2023-04-02T07:27:48.374Z,99662.69
2023-04-02T07:31:29.064Z,99659.53
2023-04-02T07:35:07.941Z,99661.38
2023-04-02T07:38:39.401Z,99667.59
2023-04-02T07:42:18.748Z,99676.13
2023-04-02T07:45:46.431Z,99678.84
2023-04-02T07:49:15.286Z,99666.37
2023-04-02T07:53:17.143Z,99680.22
2023-04-02T07:57:03.110Z,99675.97
2023-04-02T08:00:40.369Z,99678.66
2023-04-02T08:04:19.456Z,99689.31
2023-04-02T08:07:34.224Z,99700.28
2023-04-02T08:10:58.590Z,99694.16
2023-04-02T08:14:26.626Z,99696.91
2023-04-02T08:18:15.861Z,99700.47
2023-04-02T08:21:19.476Z,99708.28
2023-04-02T08:24:37.841Z,99710.53
2023-04-02T08:27:48.274Z,99705.50
2023-04-02T08:31:13.712Z,99721.41
2023-04-02T08:34:51.965Z,99717.47
2023-04-02T08:38:16.794Z,99718.84
2023-04-02T08:41:53.316Z,99718.47
2023-04-02T08:45:41.945Z,99720.91
2023-04-02T08:49:39.499Z,99722.50
2023-04-02T08:52:48.384Z,99726.37
2023-04-02T08:56:10.017Z,99723.03
2023-04-02T08:59:42.028Z,99723.03
2023-04-02T09:03:19.830Z,99718.03
2023-04-02T09:06:25.324Z,99724.81
2023-04-02T09:09:52.979Z,99725.44
2023-04-02T09:13:41.756Z,99723.22
2023-04-02T09:16:55.574Z,99724.13
2023-04-02T09:20:18.272Z,99720.81
2023-04-02T09:23:26.301Z,99721.00
2023-04-02T09:26:32.197Z,99723.41
2023-04-02T09:29:46.639Z,99730.94
2023-04-02T09:33:18.446Z,99733.47
2023-04-02T09:36:48.939Z,99738.41
2023-04-02T09:39:52.053Z,99733.94
2023-04-02T09:43:31.655Z,99742.03
2023-04-02T09:47:00.397Z,99744.69
2023-04-02T09:50:35.063Z,99743.75
2023-04-02T09:53:41.857Z,99749.72
2023-04-02T09:57:25.457Z,99756.47
2023-04-02T10:00:32.175Z,99753.38
2023-04-02T10:03:37.453Z,99758.78
2023-04-02T10:06:50.419Z,99772.31
2023-04-02T10:10:26.373Z,99771.19
2023-04-02T10:13:35.912Z,99773.25
2023-04-02T10:17:33.005Z,99769.38
2023-04-02T10:20:50.472Z,99771.00
2023-04-02T10:24:19.031Z,99776.56
2023-04-02T10:27:42.516Z,99763.69
2023-04-02T10:31:11.442Z,99759.81
2023-04-02T10:34:23.443Z,99770.31
2023-04-02T10:37:52.992Z,99759.41
2023-04-02T10:41:33.489Z,99763.00
2023-04-02T10:44:54.396Z,99758.66
2023-04-02T10:48:20.920Z,99760.56
2023-04-02T10:51:32.353Z,99758.13
2023-04-02T10:55:14.771Z,99756.34
2023-04-02T10:59:04.769Z,99760.97
2023-04-02T11:02:28.345Z,99764.87
2023-04-02T11:05:44.128Z,99764.97
2023-04-02T11:08:52.146Z,99767.47
2023-04-02T11:11:58.979Z,99762.31
2023-04-02T11:15:02.931Z,99763.63
2023-04-02T11:18:36.186Z,99760.78
2023-04-02T11:21:55.009Z,99756.72
2023-04-02T11:25:20.680Z,99753.94
2023-04-02T11:28:35.662Z,99744.25
2023-04-02T11:32:20.782Z,99742.28
2023-04-02T11:35:43.562Z,99732.06
2023-04-02T11:39:01.875Z,99725.88
2023-04-02T11:42:19.046Z,99719.81
2023-04-02T11:45:52.748Z,99726.41
2023-04-02T11:49:37.337Z,99723.19
2023-04-02T11:52:48.945Z,99730.66
2023-04-02T11:56:21.550Z,99729.97
2023-04-02T12:00:16.217Z,99730.56
2023-04-02T12:03:50.486Z,99730.06
2023-04-02T12:07:27.377Z,99730.72
2023-04-02T12:11:01.066Z,99719.63
2023-04-02T12:14:46.430Z,99724.28
2023-04-02T12:18:32.970Z,99721.16
2023-04-02T12:21:38.950Z,99715.06
2023-04-02T12:24:47.313Z,99713.91
2023-04-02T12:28:09.486Z,99697.84
2023-04-02T12:31:35.952Z,99703.06
2023-04-02T12:34:46.220Z,99701.03
2023-04-02T12:37:53.888Z,99690.28
2023-04-02T12:41:33.665Z,99683.22
2023-04-02T12:44:49.342Z,99680.34
2023-04-02T12:47:53.995Z,99679.91
2023-04-02T12:51:18.555Z,99679.13
2023-04-02T12:54:22.256Z,99685.12
2023-04-02T12:57:32.000Z,99677.53
2023-04-02T13:00:37.475Z,99679.94
2023-04-02T13:04:12.748Z,99677.88
2023-04-02T13:07:19.981Z,99685.28
2023-04-02T13:10:54.628Z,99678.63
2023-04-02T13:14:22.307Z,99683.50
2023-04-02T13:17:47.417Z,99683.56
2023-04-02T13:24:45.868Z,99689.72
2023-04-02T13:28:10.111Z,99693.31
2023-04-02T13:31:17.382Z,99690.38
2023-04-02T13:34:44.877Z,99694.69
2023-04-02T13:37:50.155Z,99690.91
2023-04-02T13:41:21.634Z,99693.66
2023-04-02T13:44:56.074Z,99684.31
2023-04-02T13:48:18.264Z,99690.94
2023-04-02T13:51:46.612Z,99694.41
2023-04-02T14:13:26.078Z,99710.81
2023-04-02T14:17:13.560Z,99701.28
2023-04-02T14:21:01.154Z,99694.59
2023-04-02T14:24:40.797Z,99696.84
2023-04-02T14:28:06.664Z,99689.13
2023-04-02T14:31:21.786Z,99692.66
2023-04-02T14:34:52.489Z,99705.84
2023-04-02T14:38:33.817Z,99709.63
2023-04-02T14:42:22.210Z,99713.16
2023-04-02T14:45:28.307Z,99701.53
2023-04-02T14:48:33.277Z,99710.97
2023-04-02T14:51:56.720Z,99717.53
2023-04-02T14:55:04.344Z,99726.59
2023-04-02T14:58:31.302Z,99730.69
2023-04-02T15:01:44.401Z,99733.75
2023-04-02T15:04:59.521Z,99740.53
2023-04-02T15:08:22.681Z,99752.13
2023-04-02T15:11:37.426Z,99757.25
2023-04-02T15:14:49.107Z,99769.34
2023-04-02T15:17:51.771Z,99772.91
2023-04-02T15:21:02.398Z,99781.97
2023-04-02T15:24:42.831Z,99796.84
2023-04-02T15:28:11.911Z,99808.47
2023-04-02T15:31:15.272Z,99811.94
2023-04-02T15:34:32.399Z,99809.28
2023-04-02T15:37:55.404Z,99816.94
2023-04-02T15:41:07.890Z,99840.44
2023-04-02T15:44:16.112Z,99860.78
2023-04-02T15:47:37.122Z,99887.75
2023-04-02T15:50:52.630Z,99884.78
2023-04-02T15:54:43.997Z,99882.53
2023-04-02T15:57:53.363Z,99870.06
2023-04-02T16:01:08.767Z,99862.34
2023-04-02T16:05:11.378Z,99855.19
2023-04-02T16:08:53.107Z,99852.31
2023-04-02T16:12:19.267Z,99842.25
2023-04-02T16:16:13.638Z,99840.19
2023-04-02T16:20:17.889Z,99842.38
2023-04-02T16:23:58.379Z,99838.19
2023-04-02T16:27:25.392Z,99846.44
2023-04-02T16:31:07.129Z,99836.16
2023-04-02T16:34:30.826Z,99843.56
2023-04-02T16:38:09.472Z,99844.38
2023-04-02T16:41:16.304Z,99858.69
2023-04-02T16:44:29.192Z,99864.25
2023-04-02T16:47:45.044Z,99870.06
2023-04-02T16:50:59.879Z,99880.13
2023-04-02T16:54:52.208Z,99883.06
2023-04-02T16:58:02.593Z,99894.69
2023-04-02T17:01:27.820Z,99897.09
2023-04-02T17:04:58.370Z,99904.47
2023-04-02T17:08:30.209Z,99916.34
2023-04-02T17:11:36.765Z,99922.69
2023-04-02T17:14:47.840Z,99925.03
2023-04-02T17:17:54.746Z,99921.56
2023-04-02T17:21:01.929Z,99924.41
2023-04-02T17:24:17.540Z,99920.09
2023-04-02T17:27:53.130Z,99922.66
2023-04-02T17:31:00.564Z,99937.72
2023-04-02T17:34:27.843Z,99929.22
2023-04-02T17:37:54.914Z,99946.88
2023-04-02T17:41:41.677Z,99946.28
2023-04-02T17:45:14.255Z,99951.09
2023-04-02T17:48:37.983Z,99957.38
2023-04-02T17:52:13.221Z,99955.50
2023-04-02T17:55:24.129Z,99959.38
2023-04-02T17:59:08.935Z,99971.19
2023-04-02T18:02:18.697Z,99970.81
2023-04-02T18:05:27.648Z,99987.66
2023-04-02T18:09:05.436Z,99985.75
2023-04-02T18:12:49.495Z,99988.41
2023-04-02T18:16:58.555Z,100001.72
2023-04-02T18:20:40.544Z,100004.25
2023-04-02T18:24:54.216Z,100013.19
2023-04-02T18:28:39.888Z,100024.84
2023-04-02T18:32:26.788Z,100026.53
2023-04-02T18:35:45.124Z,100029.22
2023-04-02T18:39:24.486Z,100034.00
2023-04-02T18:43:39.359Z,100029.75
2023-04-02T18:46:59.007Z,100038.97
2023-04-02T18:50:29.795Z,100042.94
2023-04-02T18:53:42.753Z,100053.69
2023-04-02T18:56:53.476Z,100046.38
2023-04-02T19:00:30.986Z,100056.28
2023-04-02T19:03:44.113Z,100058.84
2023-04-02T19:07:03.194Z,100066.69
2023-04-02T19:10:31.371Z,100066.34
2023-04-02T19:13:37.451Z,100075.41
2023-04-02T19:16:44.794Z,100077.87
2023-04-02T19:20:16.434Z,100073.72
2023-04-02T19:23:39.753Z,100082.81
2023-04-02T19:26:51.853Z,100084.91
2023-04-02T19:30:41.016Z,100084.44
2023-04-02T19:33:48.780Z,100101.34
2023-04-02T19:37:11.456Z,100108.78
2023-04-02T19:40:37.741Z,100108.88
2023-04-02T19:43:46.099Z,100116.53
2023-04-02T19:47:11.287Z,100118.91
2023-04-02T19:50:19.246Z,100125.59
2023-04-02T19:53:22.620Z,100125.16
2023-04-02T19:56:28.776Z,100128.50
2023-04-02T19:59:32.716Z,100140.16
2023-04-02T20:03:20.460Z,100143.03
2023-04-02T20:07:00.104Z,100151.41
2023-04-02T20:10:05.839Z,100153.16
2023-04-02T20:13:11.915Z,100160.66
2023-04-02T20:16:18.490Z,100166.94
2023-04-02T20:19:22.183Z,100169.91
2023-04-02T20:22:45.219Z,100177.94
2023-04-02T20:26:09.316Z,100175.94
2023-04-02T20:29:12.367Z,100175.94
2023-04-02T20:32:20.741Z,100186.94
2023-04-02T20:35:43.430Z,100186.84
2023-04-02T20:38:47.912Z,100192.34
2023-04-02T20:41:50.571Z,100198.03
2023-04-02T20:45:15.996Z,100202.81
2023-04-02T20:48:53.005Z,100212.66
2023-04-02T20:52:42.532Z,100219.84
2023-04-02T20:56:29.595Z,100221.50
2023-04-02T21:00:15.398Z,100226.03
2023-04-02T21:04:03.046Z,100231.53
2023-04-02T21:07:55.561Z,100239.59
2023-04-02T21:11:25.625Z,100244.44
2023-04-02T21:15:04.376Z,100251.91
2023-04-02T21:23:01.543Z,100254.66
2023-04-02T21:26:38.205Z,100254.66
2023-04-02T21:34:34.146Z,100257.06
2023-04-02T21:38:09.418Z,100265.97
2023-04-02T21:41:51.034Z,100263.13
2023-04-02T21:45:16.316Z,100271.69
2023-04-02T21:48:45.764Z,100270.66
2023-04-02T21:52:17.790Z,100276.75
2023-04-02T21:56:05.029Z,100287.25
2023-04-02T21:59:27.792Z,100289.97
2023-04-02T22:03:18.426Z,100294.53
2023-04-02T22:06:46.789Z,100302.06
2023-04-02T22:10:27.200Z,100304.25
2023-04-02T22:14:19.087Z,100313.41
2023-04-02T22:17:27.407Z,100315.47
2023-04-02T22:21:07.383Z,100322.50
2023-04-02T22:24:43.701Z,100327.78
2023-04-02T22:28:21.746Z,100327.22
2023-04-02T22:32:16.361Z,100323.78
2023-04-02T22:35:36.966Z,100332.25
2023-04-02T22:39:29.916Z,100335.00
2023-04-02T22:42:45.212Z,100342.56
2023-04-02T22:46:30.734Z,100346.13
2023-04-02T22:50:27.446Z,100347.94
2023-04-02T22:53:56.508Z,100350.22
2023-04-02T22:57:36.120Z,100353.19
2023-04-02T23:01:38.933Z,100348.97
2023-04-02T23:05:11.093Z,100359.50
2023-04-02T23:09:23.159Z,100366.25
